Time;durP1;ratioP1;P1;durP2;ratioP2;P2;SDS_P1;SDS_P2;PMS_P1;PMS_P2;Temp;Humidity;BMP_temperature;BMP_pressure;BME280_temperature;BME280_humidity;BME280_pressure;Samples;Min_cycle;Max_cycle;Signal;HPM_P1;HPM_P2
2024/04/22 07:59:52;;;;;;;;;;;;;;;6.19;100.00;100197.81;5382661;26;19933;-78
2024/04/22 08:02:17;;;;;;;;;;;;;;;6.16;100.00;100187.31;5398034;26;19938;-81
2024/04/22 08:04:43;;;;;;;;;;;;;;;6.18;100.00;100190.78;5395056;26;19936;-84
2024/04/22 08:07:08;;;;;;;;;;;;;;;6.20;100.00;100188.13;5399844;26;19998;-83
2024/04/22 08:09:34;;;;;;;;;;;;;;;6.22;100.00;100183.69;5397828;26;19937;-83
2024/04/22 08:12:01;;;;;;;;;;;;;;;6.20;100.00;100189.00;5362879;26;19945;-82
2024/04/22 08:14:26;;;;;;;;;;;;;;;6.19;100.00;100187.28;5363850;26;19936;-83
2024/04/22 08:16:51;;;;;;;;;;;;;;;6.22;100.00;100192.44;5397860;26;20352;-78
2024/04/22 08:19:16;;;;;;;;;;;;;;;6.21;100.00;100184.59;5397241;26;20002;-79
2024/04/22 08:21:42;;;;;;;;;;;;;;;6.21;100.00;100187.22;5400546;26;19930;-80
2024/04/22 08:24:07;;;;;;;;;;;;;;;6.20;100.00;100189.00;5398993;26;19937;-79
2024/04/22 08:26:32;;;;;;;;;;;;;;;6.21;100.00;100190.72;5399462;26;19937;-84
2024/04/22 08:28:59;;;;;;;;;;;;;;;6.22;100.00;100181.91;5374901;26;20223;-79
2024/04/22 08:31:25;;;;;;;;;;;;;;;6.24;100.00;100188.06;5364976;26;19941;-80
2024/04/22 08:33:50;;;;;;;;;;;;;;;6.24;100.00;100182.78;5332674;26;19937;-80
2024/04/22 08:36:19;;;;;;;;;;;;;;;6.24;100.00;100189.78;5363556;26;19938;-84
2024/04/22 08:38:45;;;;;;;;;;;;;;;6.25;100.00;100186.28;5362849;26;19934;-82
2024/04/22 08:41:12;;;;;;;;;;;;;;;6.23;100.00;100181.03;5359957;26;19949;-84
2024/04/22 08:43:37;;;;;;;;;;;;;;;6.26;100.00;100180.97;5327932;26;19937;-78
2024/04/22 08:46:02;;;;;;;;;;;;;;;6.29;100.00;100178.28;5364727;26;19937;-86
2024/04/22 08:48:28;;;;;;;;;;;;;;;6.28;100.00;100186.22;5362139;26;20265;-79
2024/04/22 08:50:54;;;;;;;;;;;;;;;6.29;100.00;100183.56;5360472;26;19940;-84
2024/04/22 08:53:19;;;;;;;;;;;;;;;6.29;100.00;100178.28;5327522;26;20432;-86
2024/04/22 08:55:44;;;;;;;;;;;;;;;6.32;100.00;100182.66;5361330;26;19938;-80
2024/04/22 08:58:09;;;;;;;;;;;;;;;6.31;100.00;100176.50;5359796;26;20497;-89
2024/04/22 09:00:38;;;;;;;;;;;;;;;6.31;100.00;100173.00;5363027;26;20376;-90
2024/04/22 09:03:03;;;;;;;;;;;;;;;6.32;100.00;100174.75;5365236;26;19937;-85
2024/04/22 09:05:28;;;;;;;;;;;;;;;6.27;100.00;100169.56;5360519;26;19929;-78
2024/04/22 09:07:54;;;;;;;;;;;;;;;6.30;100.00;100174.78;5360361;26;19929;-83
2024/04/22 09:10:22;;;;;;;;;;;;;;;6.30;100.00;100179.16;5361760;26;20259;-83
2024/04/22 09:12:54;;;;;;;;;;;;;;;6.32;100.00;100172.97;5331265;26;19938;-84
2024/04/22 09:15:19;;;;;;;;;;;;;;;6.35;100.00;100172.03;5361649;26;19930;-85
2024/04/22 09:17:45;;;;;;;;;;;;;;;6.34;100.00;100176.44;5361478;26;19937;-87
2024/04/22 09:20:17;;;;;;;;;;;;;;;6.32;100.00;100178.25;5363346;26;19942;-82
2024/04/22 09:22:42;;;;;;;;;;;;;;;6.32;100.00;100172.97;5363356;26;20376;-84
2024/04/22 09:25:08;;;;;;;;;;;;;;;6.35;100.00;100162.38;5361850;26;19930;-86
2024/04/22 09:27:33;;;;;;;;;;;;;;;6.36;100.00;100173.78;5359891;26;20016;-85
2024/04/22 09:30:02;;;;;;;;;;;;;;;6.34;100.00;100167.69;5358729;26;20274;-89
2024/04/22 09:32:28;;;;;;;;;;;;;;;6.33;100.00;100169.47;5329552;26;20610;-83
2024/04/22 09:34:56;;;;;;;;;;;;;;;6.33;100.00;100168.56;5362888;26;19937;-83
2024/04/22 09:37:22;;;;;;;;;;;;;;;6.30;100.00;100169.50;5362973;26;19966;-87
2024/04/22 09:39:49;;;;;;;;;;;;;;;6.30;100.00;100172.16;5363461;26;20273;-86
2024/04/22 09:42:17;;;;;;;;;;;;;;;6.34;100.00;100162.41;5362160;26;19929;-82
2024/04/22 09:44:44;;;;;;;;;;;;;;;6.31;100.00;100165.97;5360826;26;20365;-83
2024/04/22 09:47:10;;;;;;;;;;;;;;;6.33;100.00;100161.56;5332931;26;20264;-87
2024/04/22 09:49:36;;;;;;;;;;;;;;;6.35;100.00;100167.66;5362947;26;19929;-85
2024/04/22 09:52:03;;;;;;;;;;;;;;;6.34;100.00;100159.78;5361265;26;20581;-79
2024/04/22 09:54:30;;;;;;;;;;;;;;;6.33;100.00;100160.66;5361726;26;20409;-86
2024/04/22 09:57:01;;;;;;;;;;;;;;;6.36;100.00;100153.56;5359957;26;19930;-87
2024/04/22 09:59:26;;;;;;;;;;;;;;;6.32;100.00;100157.19;5362210;26;19930;-80
2024/04/22 10:01:52;;;;;;;;;;;;;;;6.36;100.00;100163.25;5362133;26;19930;-91
2024/04/22 10:04:17;;;;;;;;;;;;;;;6.41;100.00;100171.06;5360670;26;20271;-80
2024/04/22 10:06:42;;;;;;;;;;;;;;;6.42;100.00;100167.53;5356443;26;19942;-80
2024/04/22 10:09:08;;;;;;;;;;;;;;;6.42;100.00;100159.63;5363592;26;19940;-85
2024/04/22 10:11:33;;;;;;;;;;;;;;;6.36;100.00;100161.47;5331101;26;20014;-83
2024/04/22 10:14:11;;;;;;;;;;;;;;;6.40;100.00;100156.16;5362713;26;20261;-84
2024/04/22 10:16:38;;;;;;;;;;;;;;;6.39;100.00;100146.53;5361015;26;19929;-84
2024/04/22 10:19:03;;;;;;;;;;;;;;;6.38;100.00;100152.69;5330836;26;19930;-82
2024/04/22 10:21:28;;;;;;;;;;;;;;;6.37;100.00;100143.94;5363291;26;19929;-78
2024/04/22 10:23:54;;;;;;;;;;;;;;;6.33;100.00;100140.50;5360823;26;20322;-83
2024/04/22 10:26:20;;;;;;;;;;;;;;;6.39;100.00;100146.53;5360104;26;19930;-81
2024/04/22 10:28:46;;;;;;;;;;;;;;;6.36;100.00;100137.78;5362297;26;20296;-82
2024/04/22 10:31:21;;;;;;;;;;;;;;;6.36;100.00;100143.03;5362772;26;19984;-84
2024/04/22 10:33:46;;;;;;;;;;;;;;;6.31;100.00;100134.38;5360780;26;19934;-84
2024/04/22 10:36:11;;;;;;;;;;;;;;;6.39;100.00;100123.72;5332146;26;19937;-79
2024/04/22 10:38:36;;;;;;;;;;;;;;;6.40;100.00;100133.34;5360996;26;20000;-84
2024/04/22 10:41:02;;;;;;;;;;;;;;;6.41;100.00;100139.47;5360816;26;19930;-83
2024/04/22 10:43:27;;;;;;;;;;;;;;;6.44;100.00;100134.16;5359370;26;19961;-78
2024/04/22 10:45:52;;;;;;;;;;;;;;;6.41;100.00;100132.44;5361523;26;21268;-79
2024/04/22 10:48:17;;;;;;;;;;;;;;;6.43;100.00;100142.94;5362220;26;19930;-76
2024/04/22 10:50:46;;;;;;;;;;;;;;;6.41;100.00;100129.81;5359606;26;19999;-79
2024/04/22 10:53:11;;;;;;;;;;;;;;;6.39;100.00;100125.47;5361375;26;19937;-78
2024/04/22 10:55:36;;;;;;;;;;;;;;;6.41;100.00;100121.03;5360337;26;19930;-82
2024/04/22 10:58:02;;;;;;;;;;;;;;;6.40;100.00;100121.94;5361017;26;20371;-83
2024/04/22 11:00:27;;;;;;;;;;;;;;;6.44;100.00;100115.72;5363570;26;19934;-79
2024/04/22 11:02:52;;;;;;;;;;;;;;;6.46;100.00;100116.53;5362602;26;19933;-80
2024/04/22 11:05:18;;;;;;;;;;;;;;;6.43;100.00;100120.13;5362365;26;20350;-83
2024/04/22 11:07:43;;;;;;;;;;;;;;;6.43;100.00;100117.50;5329593;26;19937;-79
2024/04/22 11:10:08;;;;;;;;;;;;;;;6.50;100.00;100123.50;5330346;26;20262;-84
2024/04/22 11:12:34;;;;;;;;;;;;;;;6.48;100.00;100117.41;5359935;26;19938;-87
2024/04/22 11:14:59;;;;;;;;;;;;;;;6.46;100.00;100109.53;5361784;26;19930;-86
2024/04/22 11:17:24;;;;;;;;;;;;;;;6.41;100.00;100114.00;5358374;26;19942;-85
2024/04/22 11:19:50;;;;;;;;;;;;;;;6.41;100.00;100108.75;5363099;26;19930;-82
2024/04/22 11:22:16;;;;;;;;;;;;;;;6.41;100.00;100105.25;5364916;26;19930;-87
2024/04/22 11:24:41;;;;;;;;;;;;;;;6.45;100.00;100097.25;5365244;26;20322;-88
2024/04/22 11:27:06;;;;;;;;;;;;;;;6.44;100.00;100092.88;5362455;26;19934;-85
2024/04/22 11:29:33;;;;;;;;;;;;;;;6.39;100.00;100088.63;5332991;26;20266;-88
2024/04/22 11:32:00;;;;;;;;;;;;;;;6.37;100.00;100091.28;5365281;26;19940;-81
2024/04/22 11:34:25;;;;;;;;;;;;;;;6.41;100.00;100092.09;5363927;26;19962;-85
2024/04/22 11:36:55;;;;;;;;;;;;;;;6.38;100.00;100090.38;5363116;26;19929;-87
2024/04/22 11:39:21;;;;;;;;;;;;;;;6.50;100.00;100095.38;5332446;26;19937;-84
2024/04/22 11:41:46;;;;;;;;;;;;;;;6.57;100.00;100090.84;5364199;26;19936;-84
2024/04/22 11:44:12;;;;;;;;;;;;;;;6.53;100.00;100084.78;5362502;26;19930;-82
2024/04/22 11:46:39;;;;;;;;;;;;;;;6.50;100.00;100092.75;5364379;26;19942;-87
2024/04/22 11:49:05;;;;;;;;;;;;;;;8.78;100.00;100074.63;5365230;26;19930;-87
2024/04/22 11:51:30;;;;;;;;;;;;;;;7.31;100.00;100085.66;5334693;26;19985;-85
2024/04/22 11:53:55;;;;;;;;;;;;;;;6.90;100.00;100076.06;5333764;26;20261;-90
2024/04/22 11:56:25;;;;;;;;;;;;;;;6.72;100.00;100069.47;5363337;26;20365;-83
2024/04/22 11:58:51;;;;;;;;;;;;;;;6.66;100.00;100077.50;5363858;26;19934;-87
2024/04/22 12:01:16;;;;;;;;;;;;;;;6.62;100.00;100073.22;5361599;26;20280;-88
2024/04/22 12:03:41;;;;;;;;;;;;;;;6.59;100.00;100060.13;5364890;26;19930;-89
2024/04/22 12:06:07;;;;;;;;;;;;;;;6.59;100.00;100070.66;5363713;26;19930;-88
2024/04/22 12:08:32;;;;;;;;;;;;;;;6.62;100.00;100067.94;5364549;26;19937;-89
2024/04/22 12:10:58;;;;;;;;;;;;;;;6.61;100.00;100067.97;5362726;26;19930;-87
2024/04/22 12:13:24;;;;;;;;;;;;;;;6.57;100.00;100072.44;5360137;26;19936;-82
2024/04/22 12:15:49;;;;;;;;;;;;;;;6.59;100.00;100065.38;5361977;26;19933;-82
2024/04/22 12:18:14;;;;;;;;;;;;;;;6.53;100.00;100069.00;5330287;26;19930;-81
2024/04/22 12:20:40;;;;;;;;;;;;;;;6.52;100.00;100066.41;5331879;26;19942;-81
2024/04/22 12:23:05;;;;;;;;;;;;;;;6.54;100.00;100054.06;5363367;26;19929;-79
2024/04/22 12:25:30;;;;;;;;;;;;;;;6.52;100.00;100055.88;5363536;26;19938;-79
2024/04/22 12:27:55;;;;;;;;;;;;;;;6.51;100.00;100056.75;5363712;26;20007;-90
2024/04/22 12:30:21;;;;;;;;;;;;;;;6.50;100.00;100050.63;5365609;26;19929;-94
2024/04/22 12:32:46;;;;;;;;;;;;;;;6.50;100.00;100039.25;5334199;26;19930;-87
2024/04/22 12:35:11;;;;;;;;;;;;;;;6.47;100.00;100050.69;5334059;26;20861;-90
2024/04/22 12:37:36;;;;;;;;;;;;;;;6.49;100.00;100038.41;5318787;26;19929;-87
2024/04/22 12:40:02;;;;;;;;;;;;;;;6.50;100.00;100049.78;5364929;26;19930;-81
2024/04/22 12:42:27;;;;;;;;;;;;;;;6.52;100.00;100053.22;5366133;26;19929;-83
2024/04/22 12:44:52;;;;;;;;;;;;;;;6.50;100.00;100050.63;5362222;26;20434;-81
2024/04/22 12:52:46;;;;;;;;;;;;;;;6.50;100.00;100045.38;5364210;26;19936;-88
2024/04/22 12:55:11;;;;;;;;;;;;;;;6.48;100.00;100036.66;5363197;26;19930;-86
2024/04/22 12:57:36;;;;;;;;;;;;;;;6.45;100.00;100041.97;5362068;26;19941;-79
2024/04/22 13:00:06;;;;;;;;;;;;;;;6.51;100.00;100043.59;5364277;26;19930;-78
2024/04/22 13:02:33;;;;;;;;;;;;;;;6.48;100.00;100035.78;5360162;26;19937;-82
2024/04/22 13:04:59;;;;;;;;;;;;;;;6.50;100.00;100020.81;5347460;26;19936;-84
2024/04/22 13:07:24;;;;;;;;;;;;;;;6.47;100.00;100007.72;5361341;26;20364;-85
2024/04/22 13:09:50;;;;;;;;;;;;;;;6.47;100.00;100013.00;5367063;26;19984;-88
2024/04/22 13:12:15;;;;;;;;;;;;;;;6.49;100.00;100008.53;5362747;26;20869;-94
2024/04/22 13:14:41;;;;;;;;;;;;;;;6.48;100.00;100023.50;5363869;26;19934;-77
2024/04/22 13:17:06;;;;;;;;;;;;;;;6.51;100.00;100022.53;5364818;26;19933;-89
2024/04/22 13:19:31;;;;;;;;;;;;;;;6.46;100.00;100014.75;5334171;26;19981;-93
2024/04/22 13:21:56;;;;;;;;;;;;;;;6.50;100.00;100015.56;5365319;26;19937;-81
2024/04/22 13:24:21;;;;;;;;;;;;;;;6.49;100.00;100008.53;5361794;26;19936;-83
2024/04/22 13:26:47;;;;;;;;;;;;;;;6.45;100.00;100002.50;5330817;26;20246;-82
2024/04/22 13:29:12;;;;;;;;;;;;;;;6.43;100.00;100006.94;5333494;26;20272;-79
2024/04/22 13:31:37;;;;;;;;;;;;;;;6.45;100.00;100004.28;5361705;26;19948;-80
2024/04/22 13:34:02;;;;;;;;;;;;;;;6.46;100.00;100003.34;5362841;26;19999;-88
2024/04/22 13:36:27;;;;;;;;;;;;;;;6.46;100.00;99998.09;5358847;26;19963;-90
2024/04/22 13:38:53;;;;;;;;;;;;;;;6.47;100.00;99999.84;5361885;26;19938;-87
2024/04/22 13:41:18;;;;;;;;;;;;;;;6.48;100.00;99996.31;5358552;26;19945;-81
2024/04/22 13:43:44;;;;;;;;;;;;;;;6.47;100.00;99991.94;5363315;26;19937;-82
2024/04/22 13:46:09;;;;;;;;;;;;;;;6.49;100.00;99992.75;5332010;26;19934;-83
2024/04/22 13:48:34;;;;;;;;;;;;;;;6.50;100.00;99987.44;5362883;26;19929;-86
2024/04/22 13:51:00;;;;;;;;;;;;;;;6.48;100.00;99980.50;5362369;26;19941;-87
2024/04/22 13:53:25;;;;;;;;;;;;;;;6.46;100.00;99980.53;5360093;26;19941;-84
2024/04/22 13:55:50;;;;;;;;;;;;;;;6.46;100.00;99974.41;5362787;26;20003;-82
2024/04/22 13:58:15;;;;;;;;;;;;;;;6.48;100.00;99975.25;5361718;26;20012;-89
2024/04/22 14:00:41;;;;;;;;;;;;;;;6.50;100.00;99973.44;5362796;26;19936;-89
2024/04/22 14:03:06;;;;;;;;;;;;;;;6.49;100.00;99975.22;5359454;26;19998;-81
2024/04/22 14:05:31;;;;;;;;;;;;;;;6.50;100.00;99982.19;5362713;26;19930;-86
2024/04/22 14:07:57;;;;;;;;;;;;;;;6.54;100.00;99982.97;5331285;26;20287;-84
2024/04/22 14:10:22;;;;;;;;;;;;;;;6.52;100.00;99980.38;5360519;26;19929;-80
2024/04/22 14:12:47;;;;;;;;;;;;;;;6.53;100.00;99978.63;5359707;26;20000;-85
2024/04/22 14:15:13;;;;;;;;;;;;;;;6.52;100.00;99982.16;5362369;26;19930;-85
2024/04/22 14:17:38;;;;;;;;;;;;;;;6.50;100.00;99971.66;5360825;26;20006;-88
2024/04/22 14:20:06;;;;;;;;;;;;;;;6.48;100.00;99973.47;5361017;26;19930;-84
2024/04/22 14:22:31;;;;;;;;;;;;;;;6.47;100.00;99970.88;5331149;26;19942;-85
2024/04/22 14:24:56;;;;;;;;;;;;;;;6.47;100.00;99961.19;5331756;26;19941;-81
2024/04/22 14:27:21;;;;;;;;;;;;;;;6.49;100.00;99959.41;5359220;26;20301;-83
2024/04/22 14:29:46;;;;;;;;;;;;;;;6.49;100.00;99955.91;5362003;26;20258;-79
2024/04/22 14:32:12;;;;;;;;;;;;;;;6.48;100.00;99949.78;5360328;26;19938;-81
2024/04/22 14:34:37;;;;;;;;;;;;;;;6.51;100.00;99943.56;5331371;26;19937;-81
2024/04/22 14:37:02;;;;;;;;;;;;;;;6.50;100.00;99945.34;5331428;26;19929;-83
2024/04/22 14:39:27;;;;;;;;;;;;;;;6.57;100.00;99945.19;5359442;26;19937;-83
2024/04/22 14:41:53;;;;;;;;;;;;;;;6.56;100.00;99946.97;5360464;26;19929;-84
2024/04/22 14:44:18;;;;;;;;;;;;;;;6.53;100.00;99944.41;5331161;26;20362;-81
2024/04/22 14:46:43;;;;;;;;;;;;;;;6.52;100.00;99942.66;5330673;26;20410;-82
2024/04/22 14:49:08;;;;;;;;;;;;;;;6.55;100.00;99959.25;5359810;26;20369;-85
2024/04/22 14:51:34;;;;;;;;;;;;;;;6.59;100.00;99960.06;5362256;26;19929;-81
2024/04/22 14:53:59;;;;;;;;;;;;;;;6.59;100.00;99965.31;5363561;26;19942;-89
2024/04/22 14:56:25;;;;;;;;;;;;;;;6.61;100.00;99944.22;5363795;26;20811;-79
2024/04/22 14:58:50;;;;;;;;;;;;;;;6.55;100.00;99939.97;5364273;26;19975;-80
2024/04/22 15:01:15;;;;;;;;;;;;;;;6.59;100.00;99946.00;5365244;26;20272;-86
2024/04/22 15:03:41;;;;;;;;;;;;;;;6.61;100.00;99936.34;5363956;26;19998;-80
2024/04/22 15:06:06;;;;;;;;;;;;;;;6.59;100.00;99927.59;5361926;26;20358;-84
2024/04/22 15:08:32;;;;;;;;;;;;;;;6.55;100.00;99927.66;5333168;26;20277;-80
2024/04/22 15:10:59;;;;;;;;;;;;;;;6.55;100.00;99926.78;5333086;26;20278;-86
2024/04/22 15:13:24;;;;;;;;;;;;;;;6.54;100.00;99914.53;5363919;26;19941;-81
2024/04/22 15:15:49;;;;;;;;;;;;;;;6.58;100.00;99917.97;5362711;26;20268;-80
2024/04/22 15:18:14;;;;;;;;;;;;;;;6.60;100.00;99909.13;5365431;26;19930;-85
2024/04/22 15:20:40;;;;;;;;;;;;;;;6.60;100.00;99909.13;5334210;26;19961;-84
2024/04/22 15:23:07;;;;;;;;;;;;;;;6.58;100.00;99904.81;5307312;26;19936;-87
2024/04/22 15:25:32;;;;;;;;;;;;;;;6.58;100.00;99900.41;5364272;26;19937;-84
2024/04/22 15:27:57;;;;;;;;;;;;;;;6.61;100.00;99900.31;5333137;26;19937;-86
2024/04/22 15:30:22;;;;;;;;;;;;;;;6.65;100.00;99887.94;5364722;26;19930;-83
2024/04/22 15:32:48;;;;;;;;;;;;;;;6.63;100.00;99893.25;5362928;26;19946;-89
2024/04/22 15:35:13;;;;;;;;;;;;;;;6.61;100.00;99888.94;5365107;26;20250;-88
2024/04/22 15:37:38;;;;;;;;;;;;;;;6.65;100.00;99896.72;5335145;26;20359;-85
2024/04/22 15:40:04;;;;;;;;;;;;;;;6.67;100.00;99892.28;5365856;26;19936;-86
2024/04/22 15:42:29;;;;;;;;;;;;;;;6.63;100.00;99892.38;5360324;26;20000;-82
2024/04/22 15:44:55;;;;;;;;;;;;;;;6.68;100.00;99890.50;5364700;26;20372;-81
2024/04/22 15:47:20;;;;;;;;;;;;;;;6.68;100.00;99887.88;5334320;26;19933;-79
2024/04/22 15:49:45;;;;;;;;;;;;;;;6.64;100.00;99879.19;5365295;26;20369;-84
2024/04/22 15:52:10;;;;;;;;;;;;;;;6.67;100.00;99887.00;5363987;26;20264;-86
2024/04/22 15:54:35;;;;;;;;;;;;;;;6.66;100.00;99881.78;5364625;26;19933;-81
2024/04/22 15:57:01;;;;;;;;;;;;;;;6.68;100.00;99888.72;5362658;26;20000;-82
2024/04/22 15:59:26;;;;;;;;;;;;;;;6.67;100.00;99879.09;5363630;26;20000;-80
2024/04/22 16:01:51;;;;;;;;;;;;;;;6.65;100.00;99878.28;5363358;26;20364;-82
2024/04/22 16:04:17;;;;;;;;;;;;;;;6.66;100.00;99869.47;5363132;26;20324;-78
2024/04/22 16:06:42;;;;;;;;;;;;;;;6.65;100.00;99875.66;5364276;26;20006;-85
2024/04/22 16:09:07;;;;;;;;;;;;;;;6.69;100.00;99864.13;5364378;26;19930;-82
2024/04/22 16:11:32;;;;;;;;;;;;;;;6.66;100.00;99863.34;5362266;26;19934;-81
2024/04/22 16:13:58;;;;;;;;;;;;;;;6.66;100.00;99866.84;5364098;26;19936;-87
2024/04/22 16:16:23;;;;;;;;;;;;;;;6.67;100.00;99868.56;5333269;26;19937;-82
2024/04/22 16:18:48;;;;;;;;;;;;;;;6.64;100.00;99866.03;5332735;26;19941;-77
2024/04/22 16:21:13;;;;;;;;;;;;;;;6.64;100.00;99870.44;5363928;26;19975;-86
2024/04/22 16:23:39;;;;;;;;;;;;;;;6.64;100.00;99863.38;5332994;26;19999;-83
2024/04/22 16:26:04;;;;;;;;;;;;;;;6.67;100.00;99857.16;5332409;26;20261;-79
2024/04/22 16:28:29;;;;;;;;;;;;;;;6.64;100.00;99855.50;5362864;26;20273;-82
2024/04/22 16:30:54;;;;;;;;;;;;;;;6.64;100.00;99863.38;5363835;26;19987;-83
2024/04/22 16:33:20;;;;;;;;;;;;;;;6.61;100.00;99857.34;5333173;26;20027;-84
2024/04/22 16:35:45;;;;;;;;;;;;;;;6.63;100.00;99855.53;5363848;26;20361;-81
2024/04/22 16:38:11;;;;;;;;;;;;;;;6.59;100.00;99854.75;5363537;26;19938;-82
2024/04/22 16:40:39;;;;;;;;;;;;;;;6.59;100.00;99851.22;5362412;26;19930;-86
2024/04/22 16:43:06;;;;;;;;;;;;;;;6.64;100.00;99855.50;5331715;26;19935;-84
2024/04/22 16:45:31;;;;;;;;;;;;;;;6.64;100.00;99858.13;5364332;26;20333;-86
2024/04/22 16:47:57;;;;;;;;;;;;;;;6.66;100.00;99860.72;5332260;26;20000;-79
2024/04/22 16:50:22;;;;;;;;;;;;;;;6.64;100.00;99866.03;5362985;26;20332;-82
2024/04/22 16:52:48;;;;;;;;;;;;;;;6.62;100.00;99862.56;5361749;26;19936;-80
2024/04/22 16:55:13;;;;;;;;;;;;;;;6.63;100.00;99866.91;5333027;26;19940;-83
2024/04/22 16:57:38;;;;;;;;;;;;;;;6.63;100.00;99860.78;5362335;26;20000;-81
2024/04/22 17:00:04;;;;;;;;;;;;;;;6.63;100.00;99861.66;5362951;26;19942;-82
2024/04/22 17:02:29;;;;;;;;;;;;;;;6.72;100.00;99866.69;5363171;26;19930;-84
2024/04/22 17:04:55;;;;;;;;;;;;;;;6.78;100.00;99859.53;5363500;26;19929;-81
2024/04/22 17:07:21;;;;;;;;;;;;;;;6.72;100.00;99869.31;5333351;26;20003;-83
2024/04/22 17:09:46;;;;;;;;;;;;;;;6.70;100.00;99876.41;5332552;26;20237;-83
2024/04/22 17:12:14;;;;;;;;;;;;;;;6.73;100.00;99873.69;5362384;26;20653;-86
2024/04/22 17:14:39;;;;;;;;;;;;;;;6.73;100.00;99873.69;5363417;26;19941;-84
2024/04/22 17:17:04;;;;;;;;;;;;;;;6.75;100.00;99880.66;5332419;26;20384;-80
2024/04/22 17:19:29;;;;;;;;;;;;;;;6.73;100.00;99881.59;5361837;26;20377;-83
2024/04/22 17:21:55;;;;;;;;;;;;;;;6.72;100.00;99886.91;5363048;26;19930;-79
2024/04/22 17:24:20;;;;;;;;;;;;;;;6.70;100.00;99888.69;5364031;26;20442;-82
2024/04/22 17:26:45;;;;;;;;;;;;;;;6.72;100.00;99890.38;5361703;26;19930;-83
2024/04/22 17:29:11;;;;;;;;;;;;;;;6.70;100.00;99889.56;5362889;26;19934;-79
2024/04/22 17:31:36;;;;;;;;;;;;;;;6.70;100.00;99889.56;5363006;26;19949;-83
2024/04/22 17:34:05;;;;;;;;;;;;;;;6.71;100.00;99888.66;5364109;26;20028;-82
2024/04/22 17:36:30;;;;;;;;;;;;;;;6.72;100.00;99884.25;5331868;26;19937;-82
2024/04/22 17:38:55;;;;;;;;;;;;;;;6.69;100.00;99885.19;5332364;26;19937;-81
2024/04/22 17:41:21;;;;;;;;;;;;;;;6.68;100.00;99875.56;5362975;26;19940;-81
2024/04/22 17:43:46;;;;;;;;;;;;;;;6.70;100.00;99884.31;5363135;26;19933;-86
2024/04/22 17:46:11;;;;;;;;;;;;;;;6.67;100.00;99875.59;5362543;26;19930;-83
2024/04/22 17:48:37;;;;;;;;;;;;;;;6.68;100.00;99874.69;5332435;26;20375;-84
2024/04/22 17:51:02;;;;;;;;;;;;;;;6.67;100.00;99880.84;5362250;26;19937;-84
2024/04/22 17:53:27;;;;;;;;;;;;;;;6.67;100.00;99880.84;5363343;26;19936;-88
2024/04/22 17:55:53;;;;;;;;;;;;;;;6.70;100.00;99883.41;5362455;26;19938;-81
2024/04/22 17:58:22;;;;;;;;;;;;;;;6.73;100.00;99888.59;5330228;26;19937;-81
2024/04/22 18:00:49;;;;;;;;;;;;;;;6.73;100.00;99893.88;5332141;26;20256;-81
2024/04/22 18:03:15;;;;;;;;;;;;;;;6.69;100.00;99890.47;5361289;26;19929;-84
2024/04/22 18:05:40;;;;;;;;;;;;;;;6.71;100.00;99891.28;5362873;26;19930;-86
2024/04/22 18:08:05;;;;;;;;;;;;;;;6.72;100.00;99898.28;5332354;26;19930;-81
2024/04/22 18:10:31;;;;;;;;;;;;;;;6.69;100.00;99898.34;5362180;26;19999;-78
2024/04/22 18:12:59;;;;;;;;;;;;;;;6.71;100.00;99899.19;5362033;26;20367;-81
2024/04/22 18:15:24;;;;;;;;;;;;;;;6.73;100.00;99910.56;5363134;26;20268;-84
2024/04/22 18:17:49;;;;;;;;;;;;;;;6.72;100.00;99908.81;5363422;26;19942;-86
2024/04/22 18:20:17;;;;;;;;;;;;;;;6.75;100.00;99915.78;5331518;26;19937;-86
2024/04/22 18:22:42;;;;;;;;;;;;;;;6.77;100.00;99910.47;5362590;26;20365;-81
2024/04/22 18:25:08;;;;;;;;;;;;;;;6.77;100.00;99915.75;5362851;26;19962;-86
2024/04/22 18:27:33;;;;;;;;;;;;;;;6.73;100.00;99918.47;5362951;26;19950;-82
2024/04/22 18:30:00;;;;;;;;;;;;;;;6.73;100.00;99915.81;5369274;26;19999;-85
2024/04/22 18:32:25;;;;;;;;;;;;;;;6.72;100.00;99919.34;5367879;26;19930;-84
2024/04/22 18:34:51;;;;;;;;;;;;;;;6.77;100.00;99928.91;5369657;26;19936;-82
2024/04/22 18:37:16;;;;;;;;;;;;;;;6.75;100.00;99931.59;5370419;26;19938;-82
2024/04/22 18:39:41;;;;;;;;;;;;;;;6.75;100.00;99928.06;5338456;26;19937;-82
2024/04/22 18:42:06;;;;;;;;;;;;;;;6.76;100.00;99935.06;5367632;26;19929;-81
2024/04/22 18:44:32;;;;;;;;;;;;;;;6.76;100.00;99924.53;5369394;26;19962;-80
2024/04/22 18:46:57;;;;;;;;;;;;;;;6.79;100.00;99935.00;5370139;26;19977;-83
2024/04/22 18:49:22;;;;;;;;;;;;;;;6.77;100.00;99929.78;5338682;26;20377;-83
2024/04/22 18:51:47;;;;;;;;;;;;;;;6.81;100.00;99933.19;5370115;26;20374;-84
2024/04/22 18:54:13;;;;;;;;;;;;;;;6.78;100.00;99938.53;5367589;26;19929;-79
2024/04/22 18:56:38;;;;;;;;;;;;;;;6.77;100.00;99929.78;5368778;26;20000;-82
2024/04/22 18:59:03;;;;;;;;;;;;;;;6.80;100.00;99936.75;5367527;26;20349;-79
2024/04/22 19:01:29;;;;;;;;;;;;;;;6.77;100.00;99942.09;5370031;26;20272;-86
2024/04/22 19:03:55;;;;;;;;;;;;;;;6.76;100.00;99950.88;5367662;26;19936;-84
2024/04/22 19:06:20;;;;;;;;;;;;;;;6.80;100.00;99957.81;5369873;26;19930;-82
2024/04/22 19:08:45;;;;;;;;;;;;;;;6.81;100.00;99955.16;5369016;26;19930;-80
2024/04/22 19:11:11;;;;;;;;;;;;;;;6.77;100.00;99952.63;5368308;26;20016;-80
2024/04/22 19:13:36;;;;;;;;;;;;;;;6.79;100.00;99969.25;5369231;26;19945;-83
2024/04/22 19:16:02;;;;;;;;;;;;;;;6.80;100.00;99963.09;5368858;26;19937;-82
2024/04/22 19:18:27;;;;;;;;;;;;;;;6.81;100.00;99970.94;5370274;26;19938;-81
2024/04/22 19:20:53;;;;;;;;;;;;;;;6.78;100.00;99967.50;5339810;26;20322;-83
2024/04/22 19:23:18;;;;;;;;;;;;;;;6.81;100.00;99959.53;5368560;26;20382;-79
2024/04/22 19:25:43;;;;;;;;;;;;;;;6.79;100.00;99956.94;5368701;26;19936;-83
2024/04/22 19:28:08;;;;;;;;;;;;;;;6.81;100.00;99970.94;5365387;26;19929;-86
2024/04/22 19:30:37;;;;;;;;;;;;;;;6.77;100.00;99969.28;5337682;26;19930;-84
2024/04/22 19:33:02;;;;;;;;;;;;;;;6.77;100.00;99969.28;5365924;26;20397;-80
2024/04/22 19:35:27;;;;;;;;;;;;;;;6.80;100.00;99971.84;5369081;26;19930;-81
2024/04/22 19:37:52;;;;;;;;;;;;;;;6.78;100.00;99964.88;5368952;26;19937;-81
2024/04/22 19:40:18;;;;;;;;;;;;;;;6.83;100.00;99973.50;5363707;26;19966;-80
2024/04/22 19:42:43;;;;;;;;;;;;;;;6.80;100.00;99969.22;5362998;26;19937;-86
2024/04/22 19:45:08;;;;;;;;;;;;;;;6.81;100.00;99970.06;5364653;26;19929;-83
2024/04/22 19:47:33;;;;;;;;;;;;;;;6.81;100.00;99975.34;5365147;26;19941;-80
2024/04/22 19:49:59;;;;;;;;;;;;;;;6.80;100.00;99971.84;5364368;26;19934;-81
2024/04/22 19:52:24;;;;;;;;;;;;;;;6.80;100.00;99984.16;5364391;26;20252;-83
2024/04/22 19:54:52;;;;;;;;;;;;;;;6.82;100.00;99977.94;5365114;26;19930;-83
2024/04/22 19:57:17;;;;;;;;;;;;;;;6.83;100.00;99986.69;5363185;26;19936;-79
2024/04/22 19:59:42;;;;;;;;;;;;;;;6.82;100.00;99987.59;5364079;26;19930;-80
2024/04/22 20:02:08;;;;;;;;;;;;;;;6.85;100.00;99982.28;5364680;26;19975;-82
2024/04/22 20:04:36;;;;;;;;;;;;;;;6.83;100.00;99984.06;5333944;26;19937;-83
2024/04/22 20:07:03;;;;;;;;;;;;;;;6.82;100.00;99983.19;5365212;26;19936;-82
2024/04/22 20:09:28;;;;;;;;;;;;;;;6.82;100.00;99987.59;5364094;26;19942;-83
2024/04/22 20:11:55;;;;;;;;;;;;;;;6.83;100.00;99987.56;5362705;26;19930;-83
2024/04/22 20:14:20;;;;;;;;;;;;;;;6.82;100.00;99982.34;5364694;26;20354;-82
2024/04/22 20:19:17;;;;;;;;;;;;;;;6.85;100.00;99993.66;5363832;26;20277;-83
2024/04/22 20:21:45;;;;;;;;;;;;;;;6.83;100.00;99987.56;5362300;26;19930;-82
2024/04/22 20:24:10;;;;;;;;;;;;;;;6.85;100.00;99987.53;5365106;26;19930;-87
2024/04/22 20:26:35;;;;;;;;;;;;;;;6.81;100.00;99986.75;5331350;26;19957;-79
2024/04/22 20:29:00;;;;;;;;;;;;;;;6.83;100.00;99984.94;5364110;26;20296;-81
2024/04/22 20:31:27;;;;;;;;;;;;;;;6.83;100.00;99986.69;5364153;26;20001;-79
2024/04/22 20:33:52;;;;;;;;;;;;;;;6.82;100.00;99983.19;5363876;26;19998;-80
2024/04/22 20:36:20;;;;;;;;;;;;;;;6.84;100.00;99984.00;5364565;26;19937;-83
2024/04/22 20:38:45;;;;;;;;;;;;;;;6.82;100.00;99977.06;5362226;26;19938;-84
2024/04/22 20:41:11;;;;;;;;;;;;;;;6.82;100.00;99980.56;5362929;26;19999;-81